sensor_id;sensor_type;location;lat;lon;timestamp;temperature;humidity
12604;DHT22;6367;52.508;13.284;2023-05-10T00:02:06;16.60;71.00
12604;DHT22;6367;52.508;13.284;2023-05-10T00:04:32;16.60;71.30
12604;DHT22;6367;52.508;13.284;2023-05-10T00:06:58;16.60;71.30
12604;DHT22;6367;52.508;13.284;2023-05-10T00:09:23;16.60;71.20
12604;DHT22;6367;52.508;13.284;2023-05-10T00:11:49;16.60;71.20
12604;DHT22;6367;52.508;13.284;2023-05-10T00:14:15;16.60;71.30
12604;DHT22;6367;52.508;13.284;2023-05-10T00:16:41;16.50;71.30
12604;DHT22;6367;52.508;13.284;2023-05-10T00:19:06;16.50;71.40
12604;DHT22;6367;52.508;13.284;2023-05-10T00:21:32;16.40;71.40
12604;DHT22;6367;52.508;13.284;2023-05-10T00:23:59;16.40;71.50
12604;DHT22;6367;52.508;13.284;2023-05-10T00:26:25;16.40;71.70
12604;DHT22;6367;52.508;13.284;2023-05-10T00:28:51;16.30;72.00
12604;DHT22;6367;52.508;13.284;2023-05-10T00:31:16;16.30;71.80
12604;DHT22;6367;52.508;13.284;2023-05-10T00:33:42;16.30;72.00
12604;DHT22;6367;52.508;13.284;2023-05-10T00:36:08;16.30;72.10
12604;DHT22;6367;52.508;13.284;2023-05-10T00:38:33;16.30;72.70
12604;DHT22;6367;52.508;13.284;2023-05-10T00:40:59;16.30;72.00
12604;DHT22;6367;52.508;13.284;2023-05-10T00:43:25;16.20;72.20
12604;DHT22;6367;52.508;13.284;2023-05-10T00:45:50;16.20;72.30
12604;DHT22;6367;52.508;13.284;2023-05-10T00:48:16;16.00;72.30
12604;DHT22;6367;52.508;13.284;2023-05-10T00:50:42;16.00;72.80
12604;DHT22;6367;52.508;13.284;2023-05-10T00:53:07;15.90;72.90
12604;DHT22;6367;52.508;13.284;2023-05-10T00:55:34;16.00;72.90
12604;DHT22;6367;52.508;13.284;2023-05-10T00:58:00;15.90;73.00
12604;DHT22;6367;52.508;13.284;2023-05-10T01:00:27;15.80;73.10
12604;DHT22;6367;52.508;13.284;2023-05-10T01:02:53;15.90;73.00
12604;DHT22;6367;52.508;13.284;2023-05-10T01:05:19;15.80;72.80
12604;DHT22;6367;52.508;13.284;2023-05-10T01:07:45;15.80;72.80
12604;DHT22;6367;52.508;13.284;2023-05-10T01:10:10;15.80;72.90
12604;DHT22;6367;52.508;13.284;2023-05-10T01:12:40;15.80;72.80
12604;DHT22;6367;52.508;13.284;2023-05-10T01:15:07;15.70;73.30
12604;DHT22;6367;52.508;13.284;2023-05-10T01:17:35;15.70;73.30
12604;DHT22;6367;52.508;13.284;2023-05-10T01:20:03;15.70;73.40
12604;DHT22;6367;52.508;13.284;2023-05-10T01:33:55;15.50;73.80
12604;DHT22;6367;52.508;13.284;2023-05-10T01:36:31;15.50;73.40
12604;DHT22;6367;52.508;13.284;2023-05-10T01:39:15;15.50;73.60
12604;DHT22;6367;52.508;13.284;2023-05-10T01:44:29;15.50;74.00
12604;DHT22;6367;52.508;13.284;2023-05-10T01:47:09;15.50;73.90
12604;DHT22;6367;52.508;13.284;2023-05-10T01:49:45;15.60;73.90
12604;DHT22;6367;52.508;13.284;2023-05-10T01:52:15;15.40;74.00
12604;DHT22;6367;52.508;13.284;2023-05-10T01:54:49;15.40;74.20
12604;DHT22;6367;52.508;13.284;2023-05-10T01:57:16;15.40;74.10
12604;DHT22;6367;52.508;13.284;2023-05-10T01:59:45;15.40;74.30
12604;DHT22;6367;52.508;13.284;2023-05-10T02:02:15;15.30;74.30
12604;DHT22;6367;52.508;13.284;2023-05-10T02:04:43;15.30;74.60
12604;DHT22;6367;52.508;13.284;2023-05-10T02:07:11;15.30;74.90
12604;DHT22;6367;52.508;13.284;2023-05-10T02:09:38;15.20;75.00
12604;DHT22;6367;52.508;13.284;2023-05-10T02:12:05;15.20;74.90
12604;DHT22;6367;52.508;13.284;2023-05-10T02:14:35;15.20;75.00
12604;DHT22;6367;52.508;13.284;2023-05-10T02:17:04;15.10;75.00
12604;DHT22;6367;52.508;13.284;2023-05-10T02:19:32;15.10;75.00
12604;DHT22;6367;52.508;13.284;2023-05-10T02:21:59;15.10;75.20
12604;DHT22;6367;52.508;13.284;2023-05-10T02:24:26;14.90;75.70
12604;DHT22;6367;52.508;13.284;2023-05-10T02:26:54;14.90;75.60
12604;DHT22;6367;52.508;13.284;2023-05-10T02:29:23;15.00;75.60
12604;DHT22;6367;52.508;13.284;2023-05-10T02:31:51;15.00;75.90
12604;DHT22;6367;52.508;13.284;2023-05-10T02:34:19;14.90;75.90
12604;DHT22;6367;52.508;13.284;2023-05-10T02:36:44;14.90;76.20
12604;DHT22;6367;52.508;13.284;2023-05-10T02:39:11;15.00;76.00
12604;DHT22;6367;52.508;13.284;2023-05-10T02:41:40;15.00;75.90
12604;DHT22;6367;52.508;13.284;2023-05-10T02:44:07;15.00;76.00
12604;DHT22;6367;52.508;13.284;2023-05-10T02:46:34;14.80;76.20
12604;DHT22;6367;52.508;13.284;2023-05-10T02:49:01;14.80;76.20
12604;DHT22;6367;52.508;13.284;2023-05-10T02:51:31;14.80;76.50
12604;DHT22;6367;52.508;13.284;2023-05-10T02:53:57;14.70;76.50
12604;DHT22;6367;52.508;13.284;2023-05-10T02:56:32;14.70;76.50
12604;DHT22;6367;52.508;13.284;2023-05-10T02:58:58;14.70;76.40
12604;DHT22;6367;52.508;13.284;2023-05-10T03:01:24;14.70;76.60
12604;DHT22;6367;52.508;13.284;2023-05-10T03:03:49;14.50;77.00
12604;DHT22;6367;52.508;13.284;2023-05-10T03:06:15;14.50;77.10
12604;DHT22;6367;52.508;13.284;2023-05-10T03:08:42;14.60;77.10
12604;DHT22;6367;52.508;13.284;2023-05-10T03:16:58;14.50;77.30
12604;DHT22;6367;52.508;13.284;2023-05-10T03:19:55;14.40;77.40
12604;DHT22;6367;52.508;13.284;2023-05-10T03:22:25;14.40;77.20
12604;DHT22;6367;52.508;13.284;2023-05-10T03:24:55;14.50;77.10
12604;DHT22;6367;52.508;13.284;2023-05-10T03:27:23;14.50;77.00
12604;DHT22;6367;52.508;13.284;2023-05-10T03:29:51;14.50;77.00
12604;DHT22;6367;52.508;13.284;2023-05-10T03:32:18;13.40;76.20
12604;DHT22;6367;52.508;13.284;2023-05-10T03:34:43;14.40;77.10
12604;DHT22;6367;52.508;13.284;2023-05-10T03:37:09;14.40;77.20
12604;DHT22;6367;52.508;13.284;2023-05-10T03:39:35;14.40;77.10
12604;DHT22;6367;52.508;13.284;2023-05-10T03:42:01;14.40;76.80
12604;DHT22;6367;52.508;13.284;2023-05-10T03:44:26;14.40;77.20
12604;DHT22;6367;52.508;13.284;2023-05-10T03:46:52;14.40;77.10
12604;DHT22;6367;52.508;13.284;2023-05-10T03:49:18;14.30;77.30
12604;DHT22;6367;52.508;13.284;2023-05-10T03:51:43;14.30;77.20
12604;DHT22;6367;52.508;13.284;2023-05-10T03:54:09;14.40;77.30
12604;DHT22;6367;52.508;13.284;2023-05-10T03:56:35;14.30;77.30
12604;DHT22;6367;52.508;13.284;2023-05-10T03:59:00;14.40;77.40
12604;DHT22;6367;52.508;13.284;2023-05-10T04:01:26;14.40;77.30
12604;DHT22;6367;52.508;13.284;2023-05-10T04:03:51;14.50;77.20
12604;DHT22;6367;52.508;13.284;2023-05-10T04:06:17;14.40;77.00
12604;DHT22;6367;52.508;13.284;2023-05-10T04:08:43;14.40;77.40
12604;DHT22;6367;52.508;13.284;2023-05-10T04:11:10;14.40;77.30
12604;DHT22;6367;52.508;13.284;2023-05-10T04:13:36;14.40;77.10
12604;DHT22;6367;52.508;13.284;2023-05-10T04:16:02;14.30;77.50
12604;DHT22;6367;52.508;13.284;2023-05-10T04:18:28;14.30;77.70
12604;DHT22;6367;52.508;13.284;2023-05-10T04:20:53;14.40;77.60
12604;DHT22;6367;52.508;13.284;2023-05-10T04:23:19;14.40;77.20
12604;DHT22;6367;52.508;13.284;2023-05-10T04:25:45;14.60;77.20
12604;DHT22;6367;52.508;13.284;2023-05-10T04:28:10;14.50;77.10
12604;DHT22;6367;52.508;13.284;2023-05-10T04:30:36;14.40;77.40
12604;DHT22;6367;52.508;13.284;2023-05-10T04:33:01;14.40;76.90
12604;DHT22;6367;52.508;13.284;2023-05-10T04:35:27;14.30;77.20
12604;DHT22;6367;52.508;13.284;2023-05-10T04:37:54;14.30;77.50
12604;DHT22;6367;52.508;13.284;2023-05-10T04:40:19;14.30;77.50
12604;DHT22;6367;52.508;13.284;2023-05-10T04:42:45;14.40;77.30
12604;DHT22;6367;52.508;13.284;2023-05-10T04:45:12;14.40;77.50
12604;DHT22;6367;52.508;13.284;2023-05-10T04:47:37;14.40;78.20
12604;DHT22;6367;52.508;13.284;2023-05-10T04:50:04;14.40;77.30
12604;DHT22;6367;52.508;13.284;2023-05-10T04:52:30;14.40;77.80
12604;DHT22;6367;52.508;13.284;2023-05-10T04:54:55;14.40;77.70
12604;DHT22;6367;52.508;13.284;2023-05-10T04:57:21;14.60;77.80
12604;DHT22;6367;52.508;13.284;2023-05-10T04:59:47;14.70;77.40
12604;DHT22;6367;52.508;13.284;2023-05-10T05:02:13;14.70;77.70
12604;DHT22;6367;52.508;13.284;2023-05-10T05:04:38;14.80;77.40
12604;DHT22;6367;52.508;13.284;2023-05-10T05:07:04;14.90;76.60
12604;DHT22;6367;52.508;13.284;2023-05-10T05:09:30;14.90;76.70
12604;DHT22;6367;52.508;13.284;2023-05-10T05:11:57;14.80;76.80
12604;DHT22;6367;52.508;13.284;2023-05-10T05:14:23;14.90;77.20
12604;DHT22;6367;52.508;13.284;2023-05-10T05:16:51;14.90;77.20
12604;DHT22;6367;52.508;13.284;2023-05-10T05:19:16;15.00;77.30
12604;DHT22;6367;52.508;13.284;2023-05-10T05:21:42;15.10;76.80
12604;DHT22;6367;52.508;13.284;2023-05-10T05:24:08;15.10;76.80
12604;DHT22;6367;52.508;13.284;2023-05-10T05:26:35;15.20;76.40
12604;DHT22;6367;52.508;13.284;2023-05-10T05:29:02;15.30;76.10
12604;DHT22;6367;52.508;13.284;2023-05-10T05:31:28;15.50;75.40
12604;DHT22;6367;52.508;13.284;2023-05-10T05:33:53;15.40;75.80
12604;DHT22;6367;52.508;13.284;2023-05-10T05:36:19;15.50;75.30
12604;DHT22;6367;52.508;13.284;2023-05-10T05:38:45;15.50;75.30
12604;DHT22;6367;52.508;13.284;2023-05-10T05:41:10;15.40;75.60
12604;DHT22;6367;52.508;13.284;2023-05-10T05:43:36;15.50;75.60
12604;DHT22;6367;52.508;13.284;2023-05-10T05:46:02;15.70;75.30
12604;DHT22;6367;52.508;13.284;2023-05-10T05:48:30;15.70;75.10
12604;DHT22;6367;52.508;13.284;2023-05-10T05:50:56;15.70;75.40
12604;DHT22;6367;52.508;13.284;2023-05-10T05:53:22;15.80;75.90
12604;DHT22;6367;52.508;13.284;2023-05-10T05:55:56;15.90;75.10
12604;DHT22;6367;52.508;13.284;2023-05-10T05:58:23;16.00;74.80
12604;DHT22;6367;52.508;13.284;2023-05-10T06:00:49;16.00;74.70
12604;DHT22;6367;52.508;13.284;2023-05-10T06:03:14;16.10;74.60
12604;DHT22;6367;52.508;13.284;2023-05-10T06:05:40;16.10;75.00
12604;DHT22;6367;52.508;13.284;2023-05-10T06:08:06;16.10;75.40
12604;DHT22;6367;52.508;13.284;2023-05-10T06:10:32;16.40;75.00
12604;DHT22;6367;52.508;13.284;2023-05-10T06:12:57;16.40;74.70
12604;DHT22;6367;52.508;13.284;2023-05-10T06:15:23;16.60;74.50
12604;DHT22;6367;52.508;13.284;2023-05-10T06:17:48;16.70;74.20
12604;DHT22;6367;52.508;13.284;2023-05-10T06:20:15;16.70;73.90
12604;DHT22;6367;52.508;13.284;2023-05-10T06:22:41;16.80;74.20
12604;DHT22;6367;52.508;13.284;2023-05-10T06:25:08;16.90;74.30
12604;DHT22;6367;52.508;13.284;2023-05-10T06:27:33;17.10;74.00
12604;DHT22;6367;52.508;13.284;2023-05-10T06:29:59;17.20;73.10
12604;DHT22;6367;52.508;13.284;2023-05-10T06:32:25;17.10;73.50
12604;DHT22;6367;52.508;13.284;2023-05-10T06:34:51;17.10;74.10
12604;DHT22;6367;52.508;13.284;2023-05-10T06:37:17;17.20;74.30
12604;DHT22;6367;52.508;13.284;2023-05-10T06:39:43;17.20;73.80
12604;DHT22;6367;52.508;13.284;2023-05-10T06:42:09;17.40;73.40
12604;DHT22;6367;52.508;13.284;2023-05-10T06:44:34;17.50;73.70
12604;DHT22;6367;52.508;13.284;2023-05-10T06:47:00;17.50;73.60
12604;DHT22;6367;52.508;13.284;2023-05-10T06:49:25;17.80;72.80
12604;DHT22;6367;52.508;13.284;2023-05-10T06:51:51;18.10;72.10
12604;DHT22;6367;52.508;13.284;2023-05-10T06:54:17;18.50;70.60
12604;DHT22;6367;52.508;13.284;2023-05-10T06:56:43;18.80;70.50
12604;DHT22;6367;52.508;13.284;2023-05-10T06:59:08;19.10;69.50
12604;DHT22;6367;52.508;13.284;2023-05-10T07:01:34;19.10;69.00
12604;DHT22;6367;52.508;13.284;2023-05-10T07:04:00;19.00;69.20
12604;DHT22;6367;52.508;13.284;2023-05-10T07:06:27;18.80;70.10
12604;DHT22;6367;52.508;13.284;2023-05-10T07:08:52;18.70;70.20
12604;DHT22;6367;52.508;13.284;2023-05-10T07:11:18;18.50;70.70
12604;DHT22;6367;52.508;13.284;2023-05-10T07:13:43;18.60;70.80
12604;DHT22;6367;52.508;13.284;2023-05-10T07:16:11;18.70;70.40
12604;DHT22;6367;52.508;13.284;2023-05-10T07:18:37;18.60;70.80
12604;DHT22;6367;52.508;13.284;2023-05-10T07:21:03;18.60;70.70
12604;DHT22;6367;52.508;13.284;2023-05-10T07:23:29;18.50;71.60
12604;DHT22;6367;52.508;13.284;2023-05-10T07:25:55;18.50;71.30
12604;DHT22;6367;52.508;13.284;2023-05-10T07:28:23;18.40;71.80
12604;DHT22;6367;52.508;13.284;2023-05-10T07:30:49;18.50;71.60
12604;DHT22;6367;52.508;13.284;2023-05-10T07:33:15;18.70;71.20
12604;DHT22;6367;52.508;13.284;2023-05-10T07:35:41;18.70;71.10
12604;DHT22;6367;52.508;13.284;2023-05-10T07:38:07;18.70;71.40
12604;DHT22;6367;52.508;13.284;2023-05-10T07:40:33;18.70;71.80
12604;DHT22;6367;52.508;13.284;2023-05-10T07:42:59;18.80;71.40
12604;DHT22;6367;52.508;13.284;2023-05-10T07:45:28;19.00;71.40
12604;DHT22;6367;52.508;13.284;2023-05-10T07:47:54;19.10;70.50
12604;DHT22;6367;52.508;13.284;2023-05-10T07:50:19;19.00;70.50
12604;DHT22;6367;52.508;13.284;2023-05-10T07:52:46;19.00;70.80
12604;DHT22;6367;52.508;13.284;2023-05-10T07:55:12;19.10;71.30
12604;DHT22;6367;52.508;13.284;2023-05-10T07:57:38;19.00;71.60
12604;DHT22;6367;52.508;13.284;2023-05-10T08:00:05;19.20;71.60
12604;DHT22;6367;52.508;13.284;2023-05-10T08:02:31;19.30;70.30
12604;DHT22;6367;52.508;13.284;2023-05-10T08:04:56;19.30;70.20
12604;DHT22;6367;52.508;13.284;2023-05-10T08:07:24;19.40;70.30
12604;DHT22;6367;52.508;13.284;2023-05-10T08:09:50;19.50;69.60
12604;DHT22;6367;52.508;13.284;2023-05-10T08:12:16;19.60;69.50
12604;DHT22;6367;52.508;13.284;2023-05-10T08:14:42;19.70;69.70
12604;DHT22;6367;52.508;13.284;2023-05-10T08:17:08;19.70;69.30
12604;DHT22;6367;52.508;13.284;2023-05-10T08:19:33;19.70;69.40
12604;DHT22;6367;52.508;13.284;2023-05-10T08:21:59;19.90;69.50
12604;DHT22;6367;52.508;13.284;2023-05-10T08:24:25;19.90;68.80
12604;DHT22;6367;52.508;13.284;2023-05-10T08:26:50;19.80;69.30
12604;DHT22;6367;52.508;13.284;2023-05-10T08:29:16;19.90;69.50
12604;DHT22;6367;52.508;13.284;2023-05-10T08:31:42;20.00;69.20
12604;DHT22;6367;52.508;13.284;2023-05-10T08:34:08;20.10;69.20
12604;DHT22;6367;52.508;13.284;2023-05-10T08:36:33;20.10;69.40
12604;DHT22;6367;52.508;13.284;2023-05-10T08:38:59;20.20;69.20
12604;DHT22;6367;52.508;13.284;2023-05-10T08:41:25;20.30;69.50
12604;DHT22;6367;52.508;13.284;2023-05-10T08:43:52;20.30;68.90
12604;DHT22;6367;52.508;13.284;2023-05-10T08:46:19;20.40;69.00
12604;DHT22;6367;52.508;13.284;2023-05-10T08:48:46;20.50;68.50
12604;DHT22;6367;52.508;13.284;2023-05-10T08:51:19;20.60;68.50
12604;DHT22;6367;52.508;13.284;2023-05-10T08:53:45;20.70;68.30
12604;DHT22;6367;52.508;13.284;2023-05-10T08:56:11;20.80;67.80
12604;DHT22;6367;52.508;13.284;2023-05-10T08:58:38;20.90;68.10
12604;DHT22;6367;52.508;13.284;2023-05-10T09:01:05;20.90;68.00
12604;DHT22;6367;52.508;13.284;2023-05-10T09:03:31;21.10;67.70
12604;DHT22;6367;52.508;13.284;2023-05-10T09:05:56;21.00;67.80
12604;DHT22;6367;52.508;13.284;2023-05-10T09:08:26;21.00;67.80
12604;DHT22;6367;52.508;13.284;2023-05-10T09:10:53;21.00;68.00
12604;DHT22;6367;52.508;13.284;2023-05-10T09:13:19;21.10;68.30
12604;DHT22;6367;52.508;13.284;2023-05-10T09:15:46;21.30;68.70
12604;DHT22;6367;52.508;13.284;2023-05-10T09:18:12;21.40;67.60
12604;DHT22;6367;52.508;13.284;2023-05-10T09:20:38;21.50;68.20
12604;DHT22;6367;52.508;13.284;2023-05-10T09:23:04;21.60;67.50
12604;DHT22;6367;52.508;13.284;2023-05-10T09:25:30;21.60;67.60
12604;DHT22;6367;52.508;13.284;2023-05-10T09:27:58;21.80;67.60
12604;DHT22;6367;52.508;13.284;2023-05-10T09:30:29;22.10;66.80
12604;DHT22;6367;52.508;13.284;2023-05-10T09:32:56;22.20;66.80
12604;DHT22;6367;52.508;13.284;2023-05-10T09:35:27;22.20;65.70
12604;DHT22;6367;52.508;13.284;2023-05-10T09:37:55;22.30;65.00
12604;DHT22;6367;52.508;13.284;2023-05-10T09:40:23;22.20;65.60
12604;DHT22;6367;52.508;13.284;2023-05-10T09:43:08;22.20;65.90
12604;DHT22;6367;52.508;13.284;2023-05-10T09:45:35;22.20;66.30
12604;DHT22;6367;52.508;13.284;2023-05-10T09:48:02;22.20;65.20
12604;DHT22;6367;52.508;13.284;2023-05-10T09:50:29;22.20;65.70
12604;DHT22;6367;52.508;13.284;2023-05-10T09:52:59;22.10;65.90
12604;DHT22;6367;52.508;13.284;2023-05-10T09:58:03;21.90;66.50
12604;DHT22;6367;52.508;13.284;2023-05-10T10:00:35;22.00;66.30
12604;DHT22;6367;52.508;13.284;2023-05-10T10:03:01;22.10;66.60
12604;DHT22;6367;52.508;13.284;2023-05-10T10:05:35;22.20;66.60
12604;DHT22;6367;52.508;13.284;2023-05-10T10:08:03;22.20;66.20
12604;DHT22;6367;52.508;13.284;2023-05-10T10:10:31;22.10;66.20
12604;DHT22;6367;52.508;13.284;2023-05-10T10:12:57;21.90;66.40
12604;DHT22;6367;52.508;13.284;2023-05-10T10:15:24;22.00;66.80
12604;DHT22;6367;52.508;13.284;2023-05-10T10:17:51;22.20;65.20
12604;DHT22;6367;52.508;13.284;2023-05-10T10:20:17;22.20;65.50
12604;DHT22;6367;52.508;13.284;2023-05-10T10:22:43;22.20;65.40
12604;DHT22;6367;52.508;13.284;2023-05-10T10:25:11;22.30;65.60
12604;DHT22;6367;52.508;13.284;2023-05-10T10:30:42;22.30;64.60
12604;DHT22;6367;52.508;13.284;2023-05-10T10:33:24;22.70;64.40
12604;DHT22;6367;52.508;13.284;2023-05-10T10:35:54;22.80;65.10
12604;DHT22;6367;52.508;13.284;2023-05-10T10:38:21;22.90;65.50
12604;DHT22;6367;52.508;13.284;2023-05-10T10:40:47;22.70;65.20
12604;DHT22;6367;52.508;13.284;2023-05-10T10:43:27;22.60;65.80
12604;DHT22;6367;52.508;13.284;2023-05-10T10:46:12;22.70;66.00
12604;DHT22;6367;52.508;13.284;2023-05-10T10:48:39;22.90;65.80
12604;DHT22;6367;52.508;13.284;2023-05-10T10:51:05;23.00;65.30
12604;DHT22;6367;52.508;13.284;2023-05-10T10:53:32;22.90;65.20
12604;DHT22;6367;52.508;13.284;2023-05-10T10:56:11;22.90;65.20
12604;DHT22;6367;52.508;13.284;2023-05-10T10:58:39;23.00;65.20
12604;DHT22;6367;52.508;13.284;2023-05-10T11:01:15;23.00;65.20
12604;DHT22;6367;52.508;13.284;2023-05-10T11:06:36;23.00;65.70
12604;DHT22;6367;52.508;13.284;2023-05-10T11:09:09;23.10;64.80
12604;DHT22;6367;52.508;13.284;2023-05-10T11:11:35;23.30;65.20
12604;DHT22;6367;52.508;13.284;2023-05-10T11:14:06;23.40;64.30
12604;DHT22;6367;52.508;13.284;2023-05-10T11:16:42;23.60;63.80
12604;DHT22;6367;52.508;13.284;2023-05-10T11:19:16;23.50;64.00
12604;DHT22;6367;52.508;13.284;2023-05-10T11:22:13;23.50;64.30
12604;DHT22;6367;52.508;13.284;2023-05-10T11:24:56;23.60;64.70
12604;DHT22;6367;52.508;13.284;2023-05-10T11:27:23;23.60;64.80
12604;DHT22;6367;52.508;13.284;2023-05-10T11:29:52;23.90;64.30
12604;DHT22;6367;52.508;13.284;2023-05-10T11:32:19;24.00;63.10
12604;DHT22;6367;52.508;13.284;2023-05-10T11:34:47;23.90;63.20
12604;DHT22;6367;52.508;13.284;2023-05-10T11:37:13;23.90;63.30
12604;DHT22;6367;52.508;13.284;2023-05-10T11:39:45;23.90;63.50
12604;DHT22;6367;52.508;13.284;2023-05-10T11:42:12;23.80;63.70
12604;DHT22;6367;52.508;13.284;2023-05-10T11:44:38;24.00;63.70
12604;DHT22;6367;52.508;13.284;2023-05-10T11:47:04;24.00;64.00
12604;DHT22;6367;52.508;13.284;2023-05-10T11:49:30;24.20;63.40
12604;DHT22;6367;52.508;13.284;2023-05-10T11:52:08;24.40;61.70
12604;DHT22;6367;52.508;13.284;2023-05-10T11:54:36;24.50;61.60
12604;DHT22;6367;52.508;13.284;2023-05-10T11:57:02;24.60;60.80
12604;DHT22;6367;52.508;13.284;2023-05-10T11:59:28;24.70;60.50
12604;DHT22;6367;52.508;13.284;2023-05-10T12:01:54;24.80;61.00
12604;DHT22;6367;52.508;13.284;2023-05-10T12:04:20;24.90;60.20
12604;DHT22;6367;52.508;13.284;2023-05-10T12:06:46;25.00;60.30
12604;DHT22;6367;52.508;13.284;2023-05-10T12:09:12;25.00;60.40
12604;DHT22;6367;52.508;13.284;2023-05-10T12:11:39;25.00;60.30
12604;DHT22;6367;52.508;13.284;2023-05-10T12:14:05;25.00;60.00
12604;DHT22;6367;52.508;13.284;2023-05-10T12:16:32;25.00;60.70
12604;DHT22;6367;52.508;13.284;2023-05-10T12:18:59;25.10;60.60
12604;DHT22;6367;52.508;13.284;2023-05-10T12:21:26;25.10;60.60
12604;DHT22;6367;52.508;13.284;2023-05-10T12:23:54;25.20;60.70
12604;DHT22;6367;52.508;13.284;2023-05-10T12:26:24;25.40;59.90
12604;DHT22;6367;52.508;13.284;2023-05-10T12:28:55;25.50;58.90
12604;DHT22;6367;52.508;13.284;2023-05-10T12:31:20;25.60;59.40
12604;DHT22;6367;52.508;13.284;2023-05-10T12:33:46;25.60;59.20
12604;DHT22;6367;52.508;13.284;2023-05-10T12:36:14;25.40;59.90
12604;DHT22;6367;52.508;13.284;2023-05-10T12:38:42;25.40;59.20
12604;DHT22;6367;52.508;13.284;2023-05-10T12:41:14;25.40;58.80
12604;DHT22;6367;52.508;13.284;2023-05-10T12:43:40;25.50;58.50
12604;DHT22;6367;52.508;13.284;2023-05-10T12:51:00;25.50;57.70
12604;DHT22;6367;52.508;13.284;2023-05-10T12:53:26;25.50;57.90
12604;DHT22;6367;52.508;13.284;2023-05-10T12:55:51;25.60;57.20
12604;DHT22;6367;52.508;13.284;2023-05-10T12:58:17;25.60;57.40
12604;DHT22;6367;52.508;13.284;2023-05-10T13:00:42;25.40;58.10
12604;DHT22;6367;52.508;13.284;2023-05-10T13:03:09;25.50;58.00
12604;DHT22;6367;52.508;13.284;2023-05-10T13:05:36;25.50;58.10
12604;DHT22;6367;52.508;13.284;2023-05-10T13:08:02;25.40;58.50
12604;DHT22;6367;52.508;13.284;2023-05-10T13:10:31;25.30;58.30
12604;DHT22;6367;52.508;13.284;2023-05-10T13:12:58;25.30;58.20
12604;DHT22;6367;52.508;13.284;2023-05-10T13:15:24;25.40;58.50
12604;DHT22;6367;52.508;13.284;2023-05-10T13:17:50;25.40;58.40
12604;DHT22;6367;52.508;13.284;2023-05-10T13:20:16;25.50;58.20
12604;DHT22;6367;52.508;13.284;2023-05-10T13:22:43;25.30;58.40
12604;DHT22;6367;52.508;13.284;2023-05-10T13:25:09;25.40;58.60
12604;DHT22;6367;52.508;13.284;2023-05-10T13:27:35;25.50;58.30
12604;DHT22;6367;52.508;13.284;2023-05-10T13:30:01;25.50;57.90
12604;DHT22;6367;52.508;13.284;2023-05-10T13:32:28;25.60;58.20
12604;DHT22;6367;52.508;13.284;2023-05-10T13:34:55;25.50;57.50
12604;DHT22;6367;52.508;13.284;2023-05-10T13:37:21;25.40;57.90
12604;DHT22;6367;52.508;13.284;2023-05-10T13:39:47;25.50;58.40
12604;DHT22;6367;52.508;13.284;2023-05-10T13:42:12;25.50;57.90
12604;DHT22;6367;52.508;13.284;2023-05-10T13:44:38;25.60;57.80
12604;DHT22;6367;52.508;13.284;2023-05-10T13:47:04;25.60;58.30
12604;DHT22;6367;52.508;13.284;2023-05-10T13:49:30;25.50;57.70
12604;DHT22;6367;52.508;13.284;2023-05-10T13:51:56;25.30;58.00
12604;DHT22;6367;52.508;13.284;2023-05-10T13:54:22;25.40;56.80
12604;DHT22;6367;52.508;13.284;2023-05-10T13:56:48;25.30;57.20
12604;DHT22;6367;52.508;13.284;2023-05-10T13:59:14;25.30;57.80
12604;DHT22;6367;52.508;13.284;2023-05-10T14:01:41;25.40;57.80
12604;DHT22;6367;52.508;13.284;2023-05-10T14:04:07;25.50;57.70
12604;DHT22;6367;52.508;13.284;2023-05-10T14:06:35;25.60;57.30
12604;DHT22;6367;52.508;13.284;2023-05-10T14:09:02;25.70;57.50
12604;DHT22;6367;52.508;13.284;2023-05-10T14:11:28;25.80;57.60
12604;DHT22;6367;52.508;13.284;2023-05-10T14:13:53;25.70;57.60
12604;DHT22;6367;52.508;13.284;2023-05-10T14:16:19;25.70;57.10
12604;DHT22;6367;52.508;13.284;2023-05-10T14:18:45;25.70;57.50
12604;DHT22;6367;52.508;13.284;2023-05-10T14:21:11;25.60;57.50
12604;DHT22;6367;52.508;13.284;2023-05-10T14:23:37;25.50;57.50
12604;DHT22;6367;52.508;13.284;2023-05-10T14:26:03;25.60;57.10
12604;DHT22;6367;52.508;13.284;2023-05-10T14:28:29;25.70;56.20
12604;DHT22;6367;52.508;13.284;2023-05-10T14:30:55;25.60;56.40
12604;DHT22;6367;52.508;13.284;2023-05-10T14:33:20;25.60;55.90
12604;DHT22;6367;52.508;13.284;2023-05-10T14:35:47;25.50;56.00
12604;DHT22;6367;52.508;13.284;2023-05-10T14:38:13;25.60;56.00
12604;DHT22;6367;52.508;13.284;2023-05-10T14:40:39;25.60;56.30
12604;DHT22;6367;52.508;13.284;2023-05-10T14:43:05;25.60;56.20
12604;DHT22;6367;52.508;13.284;2023-05-10T14:45:30;25.50;55.40
12604;DHT22;6367;52.508;13.284;2023-05-10T14:47:57;25.30;55.90
12604;DHT22;6367;52.508;13.284;2023-05-10T14:50:23;25.30;56.20
12604;DHT22;6367;52.508;13.284;2023-05-10T14:52:48;25.20;56.70
12604;DHT22;6367;52.508;13.284;2023-05-10T14:55:15;25.30;56.20
12604;DHT22;6367;52.508;13.284;2023-05-10T14:57:40;25.30;56.20
12604;DHT22;6367;52.508;13.284;2023-05-10T15:00:07;25.10;56.60
12604;DHT22;6367;52.508;13.284;2023-05-10T15:02:33;25.10;56.60
12604;DHT22;6367;52.508;13.284;2023-05-10T15:04:59;25.00;57.10
12604;DHT22;6367;52.508;13.284;2023-05-10T15:07:24;24.90;57.30
12604;DHT22;6367;52.508;13.284;2023-05-10T15:09:51;25.00;56.90
12604;DHT22;6367;52.508;13.284;2023-05-10T15:12:20;24.80;57.00
12604;DHT22;6367;52.508;13.284;2023-05-10T15:14:46;24.90;57.10
12604;DHT22;6367;52.508;13.284;2023-05-10T15:17:12;24.90;57.10
12604;DHT22;6367;52.508;13.284;2023-05-10T15:19:37;25.00;57.00
12604;DHT22;6367;52.508;13.284;2023-05-10T15:22:04;25.00;57.10
12604;DHT22;6367;52.508;13.284;2023-05-10T15:24:31;25.20;57.00
12604;DHT22;6367;52.508;13.284;2023-05-10T15:26:57;25.30;56.70
12604;DHT22;6367;52.508;13.284;2023-05-10T15:29:22;25.20;56.80
12604;DHT22;6367;52.508;13.284;2023-05-10T15:31:50;25.20;56.80
12604;DHT22;6367;52.508;13.284;2023-05-10T15:34:17;25.20;56.90
12604;DHT22;6367;52.508;13.284;2023-05-10T15:36:43;25.30;56.60
12604;DHT22;6367;52.508;13.284;2023-05-10T15:39:10;25.20;56.70
12604;DHT22;6367;52.508;13.284;2023-05-10T15:41:35;25.30;57.40
12604;DHT22;6367;52.508;13.284;2023-05-10T15:44:01;25.30;57.10
12604;DHT22;6367;52.508;13.284;2023-05-10T15:46:28;25.20;57.60
12604;DHT22;6367;52.508;13.284;2023-05-10T15:48:53;25.30;57.40
12604;DHT22;6367;52.508;13.284;2023-05-10T15:51:19;25.30;57.40
12604;DHT22;6367;52.508;13.284;2023-05-10T15:53:45;25.20;57.60
12604;DHT22;6367;52.508;13.284;2023-05-10T15:56:11;25.10;57.70
12604;DHT22;6367;52.508;13.284;2023-05-10T15:58:40;25.20;57.60
12604;DHT22;6367;52.508;13.284;2023-05-10T16:01:06;25.10;57.80
12604;DHT22;6367;52.508;13.284;2023-05-10T16:03:33;25.00;58.00